sensor_id;sensor_type;location;lat;lon;timestamp;temperature;humidity
21759;DHT22;11041;50.854;20.580;2023-01-29T00:02:16;-0.20;99.90
21759;DHT22;11041;50.854;20.580;2023-01-29T00:04:42;-0.10;99.90
21759;DHT22;11041;50.854;20.580;2023-01-29T00:07:09;-0.10;99.90
21759;DHT22;11041;50.854;20.580;2023-01-29T00:09:35;-0.10;99.90
21759;DHT22;11041;50.854;20.580;2023-01-29T00:12:02;0.00;99.90
21759;DHT22;11041;50.854;20.580;2023-01-29T00:14:28;-0.10;99.90
21759;DHT22;11041;50.854;20.580;2023-01-29T00:16:56;-0.10;99.90
21759;DHT22;11041;50.854;20.580;2023-01-29T00:19:22;-0.20;99.90
21759;DHT22;11041;50.854;20.580;2023-01-29T00:21:48;-0.10;99.90
21759;DHT22;11041;50.854;20.580;2023-01-29T00:24:15;-0.10;99.90
21759;DHT22;11041;50.854;20.580;2023-01-29T00:26:41;-0.10;99.90
21759;DHT22;11041;50.854;20.580;2023-01-29T00:29:07;-0.20;99.90
21759;DHT22;11041;50.854;20.580;2023-01-29T00:31:34;-0.20;99.90
21759;DHT22;11041;50.854;20.580;2023-01-29T00:34:01;-0.30;99.90
21759;DHT22;11041;50.854;20.580;2023-01-29T00:36:28;-0.30;99.90
21759;DHT22;11041;50.854;20.580;2023-01-29T00:38:59;-0.20;99.90
21759;DHT22;11041;50.854;20.580;2023-01-29T00:41:30;-0.20;99.90
21759;DHT22;11041;50.854;20.580;2023-01-29T00:44:17;-0.20;99.90
21759;DHT22;11041;50.854;20.580;2023-01-29T00:47:02;-0.20;99.90
21759;DHT22;11041;50.854;20.580;2023-01-29T00:49:50;-0.20;99.90
21759;DHT22;11041;50.854;20.580;2023-01-29T00:52:16;-0.30;99.90
21759;DHT22;11041;50.854;20.580;2023-01-29T00:54:49;-0.20;99.90
21759;DHT22;11041;50.854;20.580;2023-01-29T00:57:17;-0.20;99.90
21759;DHT22;11041;50.854;20.580;2023-01-29T00:59:43;-0.30;99.90
21759;DHT22;11041;50.854;20.580;2023-01-29T01:02:10;-0.30;99.90
21759;DHT22;11041;50.854;20.580;2023-01-29T01:04:55;-0.30;99.90
21759;DHT22;11041;50.854;20.580;2023-01-29T01:07:21;-0.30;99.90
21759;DHT22;11041;50.854;20.580;2023-01-29T01:09:47;-0.20;99.90
21759;DHT22;11041;50.854;20.580;2023-01-29T01:12:32;-0.30;99.90
21759;DHT22;11041;50.854;20.580;2023-01-29T01:14:59;-0.30;99.90
21759;DHT22;11041;50.854;20.580;2023-01-29T01:17:25;-0.40;99.90
21759;DHT22;11041;50.854;20.580;2023-01-29T01:19:52;-0.30;99.90
21759;DHT22;11041;50.854;20.580;2023-01-29T01:22:19;-0.30;99.90
21759;DHT22;11041;50.854;20.580;2023-01-29T01:24:45;-0.50;99.90
21759;DHT22;11041;50.854;20.580;2023-01-29T01:27:12;-0.50;99.90
21759;DHT22;11041;50.854;20.580;2023-01-29T01:29:39;-0.40;99.90
21759;DHT22;11041;50.854;20.580;2023-01-29T01:32:06;-0.40;99.90
21759;DHT22;11041;50.854;20.580;2023-01-29T01:34:32;-0.40;99.90
21759;DHT22;11041;50.854;20.580;2023-01-29T01:36:58;-0.30;99.90
21759;DHT22;11041;50.854;20.580;2023-01-29T01:39:25;-0.30;99.90
21759;DHT22;11041;50.854;20.580;2023-01-29T01:41:52;-0.30;99.90
21759;DHT22;11041;50.854;20.580;2023-01-29T01:47:49;-0.30;99.90
21759;DHT22;11041;50.854;20.580;2023-01-29T01:50:42;-0.20;99.90
21759;DHT22;11041;50.854;20.580;2023-01-29T01:53:34;-0.40;99.90
21759;DHT22;11041;50.854;20.580;2023-01-29T01:56:08;-0.50;99.90
21759;DHT22;11041;50.854;20.580;2023-01-29T01:58:42;-0.40;99.90
21759;DHT22;11041;50.854;20.580;2023-01-29T02:01:15;-0.50;99.90
21759;DHT22;11041;50.854;20.580;2023-01-29T02:03:59;-0.40;99.90
21759;DHT22;11041;50.854;20.580;2023-01-29T02:06:49;-0.40;99.90
21759;DHT22;11041;50.854;20.580;2023-01-29T02:09:41;-0.40;99.90
21759;DHT22;11041;50.854;20.580;2023-01-29T02:12:15;-0.40;99.90
21759;DHT22;11041;50.854;20.580;2023-01-29T02:14:46;-0.50;99.90
21759;DHT22;11041;50.854;20.580;2023-01-29T02:17:17;-0.50;99.90
21759;DHT22;11041;50.854;20.580;2023-01-29T02:31:28;-0.60;99.90
21759;DHT22;11041;50.854;20.580;2023-01-29T02:34:46;-0.60;99.90
21759;DHT22;11041;50.854;20.580;2023-01-29T02:37:41;-0.60;99.90
21759;DHT22;11041;50.854;20.580;2023-01-29T02:40:41;-0.50;99.90
21759;DHT22;11041;50.854;20.580;2023-01-29T02:46:38;-0.60;99.90
21759;DHT22;11041;50.854;20.580;2023-01-29T02:52:25;-0.70;99.90
21759;DHT22;11041;50.854;20.580;2023-01-29T02:55:14;-0.90;99.90
21759;DHT22;11041;50.854;20.580;2023-01-29T02:57:48;-1.00;99.90
21759;DHT22;11041;50.854;20.580;2023-01-29T03:00:26;-1.00;99.90
21759;DHT22;11041;50.854;20.580;2023-01-29T03:09:03;-1.10;99.90
21759;DHT22;11041;50.854;20.580;2023-01-29T03:11:41;-1.10;99.90
21759;DHT22;11041;50.854;20.580;2023-01-29T03:14:36;-1.10;99.90
21759;DHT22;11041;50.854;20.580;2023-01-29T03:17:27;-1.20;99.90
21759;DHT22;11041;50.854;20.580;2023-01-29T03:19:58;-1.20;99.90
21759;DHT22;11041;50.854;20.580;2023-01-29T03:22:27;-1.10;99.90
21759;DHT22;11041;50.854;20.580;2023-01-29T03:24:59;-1.10;99.90
21759;DHT22;11041;50.854;20.580;2023-01-29T03:28:01;-1.00;99.90
21759;DHT22;11041;50.854;20.580;2023-01-29T03:30:54;-1.10;99.90
21759;DHT22;11041;50.854;20.580;2023-01-29T03:33:52;-1.10;99.90
21759;DHT22;11041;50.854;20.580;2023-01-29T03:36:36;-1.10;99.90
21759;DHT22;11041;50.854;20.580;2023-01-29T03:39:12;-1.10;99.90
21759;DHT22;11041;50.854;20.580;2023-01-29T03:41:47;-1.20;99.90
21759;DHT22;11041;50.854;20.580;2023-01-29T03:47:17;-1.30;99.90
21759;DHT22;11041;50.854;20.580;2023-01-29T03:49:53;-1.30;99.90
21759;DHT22;11041;50.854;20.580;2023-01-29T03:52:48;-1.20;99.90
21759;DHT22;11041;50.854;20.580;2023-01-29T03:55:51;-1.30;99.90
21759;DHT22;11041;50.854;20.580;2023-01-29T03:58:33;-1.30;99.90
21759;DHT22;11041;50.854;20.580;2023-01-29T04:01:05;-1.30;99.90
21759;DHT22;11041;50.854;20.580;2023-01-29T04:03:51;-1.40;99.90
21759;DHT22;11041;50.854;20.580;2023-01-29T04:06:30;-1.30;99.90
21759;DHT22;11041;50.854;20.580;2023-01-29T04:09:20;-1.20;99.90
21759;DHT22;11041;50.854;20.580;2023-01-29T04:12:13;-1.20;99.90
21759;DHT22;11041;50.854;20.580;2023-01-29T04:14:44;-1.10;99.90
21759;DHT22;11041;50.854;20.580;2023-01-29T04:17:19;-1.20;99.90
21759;DHT22;11041;50.854;20.580;2023-01-29T04:19:48;-1.30;99.90
21759;DHT22;11041;50.854;20.580;2023-01-29T04:22:36;-1.30;99.90
21759;DHT22;11041;50.854;20.580;2023-01-29T04:25:06;-1.20;99.90
21759;DHT22;11041;50.854;20.580;2023-01-29T04:31:01;-1.00;99.90
21759;DHT22;11041;50.854;20.580;2023-01-29T04:43:07;-1.00;99.90
21759;DHT22;11041;50.854;20.580;2023-01-29T04:45:56;-0.90;99.90
21759;DHT22;11041;50.854;20.580;2023-01-29T05:02:55;-1.20;99.90
21759;DHT22;11041;50.854;20.580;2023-01-29T05:05:24;-1.10;99.90
21759;DHT22;11041;50.854;20.580;2023-01-29T05:07:50;-1.10;99.90
21759;DHT22;11041;50.854;20.580;2023-01-29T05:10:20;-1.00;99.90
21759;DHT22;11041;50.854;20.580;2023-01-29T05:12:52;-1.10;99.90
21759;DHT22;11041;50.854;20.580;2023-01-29T05:15:32;-1.10;99.90
21759;DHT22;11041;50.854;20.580;2023-01-29T05:18:04;-1.00;99.90
21759;DHT22;11041;50.854;20.580;2023-01-29T05:20:36;-0.90;99.90
21759;DHT22;11041;50.854;20.580;2023-01-29T05:23:18;-0.90;99.90
21759;DHT22;11041;50.854;20.580;2023-01-29T05:25:47;-1.00;99.90
21759;DHT22;11041;50.854;20.580;2023-01-29T05:28:15;-1.10;99.90
21759;DHT22;11041;50.854;20.580;2023-01-29T05:30:50;-1.00;99.90
21759;DHT22;11041;50.854;20.580;2023-01-29T05:33:24;-1.00;99.90
21759;DHT22;11041;50.854;20.580;2023-01-29T05:35:53;-1.10;99.90
21759;DHT22;11041;50.854;20.580;2023-01-29T05:38:21;-1.10;99.90
21759;DHT22;11041;50.854;20.580;2023-01-29T05:40:48;-1.00;99.90
21759;DHT22;11041;50.854;20.580;2023-01-29T05:43:22;-0.90;99.90
21759;DHT22;11041;50.854;20.580;2023-01-29T05:45:54;-1.00;99.90
21759;DHT22;11041;50.854;20.580;2023-01-29T05:48:26;-0.90;99.90
21759;DHT22;11041;50.854;20.580;2023-01-29T05:50:59;-0.90;99.90
21759;DHT22;11041;50.854;20.580;2023-01-29T05:53:28;-1.00;99.90
21759;DHT22;11041;50.854;20.580;2023-01-29T05:55:55;-0.90;99.90
21759;DHT22;11041;50.854;20.580;2023-01-29T05:58:25;-0.90;99.90
21759;DHT22;11041;50.854;20.580;2023-01-29T06:00:51;-0.80;99.90
21759;DHT22;11041;50.854;20.580;2023-01-29T06:03:18;-0.70;99.90
21759;DHT22;11041;50.854;20.580;2023-01-29T06:05:44;-0.70;99.90
21759;DHT22;11041;50.854;20.580;2023-01-29T06:08:11;-0.70;99.90
21759;DHT22;11041;50.854;20.580;2023-01-29T06:10:38;-0.70;99.90
21759;DHT22;11041;50.854;20.580;2023-01-29T06:13:05;-0.60;99.90
21759;DHT22;11041;50.854;20.580;2023-01-29T06:15:31;-0.70;99.90
21759;DHT22;11041;50.854;20.580;2023-01-29T06:17:58;-0.70;99.90
21759;DHT22;11041;50.854;20.580;2023-01-29T06:20:25;-0.70;99.90
21759;DHT22;11041;50.854;20.580;2023-01-29T06:22:51;-0.70;99.90
21759;DHT22;11041;50.854;20.580;2023-01-29T06:25:18;-0.60;99.90
21759;DHT22;11041;50.854;20.580;2023-01-29T06:27:45;-0.60;99.90
21759;DHT22;11041;50.854;20.580;2023-01-29T06:30:11;-0.60;99.90
21759;DHT22;11041;50.854;20.580;2023-01-29T06:32:38;-0.60;99.90
21759;DHT22;11041;50.854;20.580;2023-01-29T06:35:05;-0.60;99.90
21759;DHT22;11041;50.854;20.580;2023-01-29T06:37:32;-0.60;99.90
21759;DHT22;11041;50.854;20.580;2023-01-29T06:39:58;-0.60;99.90
21759;DHT22;11041;50.854;20.580;2023-01-29T06:42:25;-0.60;99.90
21759;DHT22;11041;50.854;20.580;2023-01-29T06:44:54;-0.60;99.90
21759;DHT22;11041;50.854;20.580;2023-01-29T06:47:22;-0.60;99.90
21759;DHT22;11041;50.854;20.580;2023-01-29T06:49:49;-0.60;99.90
21759;DHT22;11041;50.854;20.580;2023-01-29T06:52:16;-0.60;99.90
21759;DHT22;11041;50.854;20.580;2023-01-29T06:54:42;-0.60;99.90
21759;DHT22;11041;50.854;20.580;2023-01-29T07:47:50;-0.60;99.90
21759;DHT22;11041;50.854;20.580;2023-01-29T07:50:18;-0.60;99.90
21759;DHT22;11041;50.854;20.580;2023-01-29T07:52:44;-0.50;99.90
21759;DHT22;11041;50.854;20.580;2023-01-29T07:55:11;-0.60;99.90
21759;DHT22;11041;50.854;20.580;2023-01-29T07:57:37;-0.60;99.90
21759;DHT22;11041;50.854;20.580;2023-01-29T08:00:04;-0.50;99.90
21759;DHT22;11041;50.854;20.580;2023-01-29T08:02:31;-0.50;99.90
21759;DHT22;11041;50.854;20.580;2023-01-29T08:04:58;-0.50;99.90
21759;DHT22;11041;50.854;20.580;2023-01-29T08:07:24;-0.50;99.90
21759;DHT22;11041;50.854;20.580;2023-01-29T08:09:51;-0.50;99.90
21759;DHT22;11041;50.854;20.580;2023-01-29T08:12:17;-0.50;99.90
21759;DHT22;11041;50.854;20.580;2023-01-29T08:14:43;-0.50;99.90
21759;DHT22;11041;50.854;20.580;2023-01-29T08:17:11;-0.40;99.90
21759;DHT22;11041;50.854;20.580;2023-01-29T08:19:39;-0.50;99.90
21759;DHT22;11041;50.854;20.580;2023-01-29T08:22:05;-0.40;99.90
21759;DHT22;11041;50.854;20.580;2023-01-29T08:24:32;-0.40;99.90
21759;DHT22;11041;50.854;20.580;2023-01-29T08:26:59;-0.40;99.90
21759;DHT22;11041;50.854;20.580;2023-01-29T08:29:25;-0.50;99.90
21759;DHT22;11041;50.854;20.580;2023-01-29T08:31:52;-0.40;99.90
21759;DHT22;11041;50.854;20.580;2023-01-29T08:34:19;-0.40;99.90
21759;DHT22;11041;50.854;20.580;2023-01-29T08:36:45;-0.30;99.90
21759;DHT22;11041;50.854;20.580;2023-01-29T08:39:12;-0.20;99.90
21759;DHT22;11041;50.854;20.580;2023-01-29T08:41:39;-0.30;99.90
21759;DHT22;11041;50.854;20.580;2023-01-29T08:44:06;-0.20;99.90
21759;DHT22;11041;50.854;20.580;2023-01-29T08:46:32;-0.20;99.90
21759;DHT22;11041;50.854;20.580;2023-01-29T08:48:59;-0.10;99.90
21759;DHT22;11041;50.854;20.580;2023-01-29T08:51:25;-0.10;99.90
21759;DHT22;11041;50.854;20.580;2023-01-29T08:53:52;-0.10;99.90
21759;DHT22;11041;50.854;20.580;2023-01-29T08:56:19;-0.10;99.90
21759;DHT22;11041;50.854;20.580;2023-01-29T08:58:46;-0.10;99.90
21759;DHT22;11041;50.854;20.580;2023-01-29T09:01:13;-0.10;99.90
21759;DHT22;11041;50.854;20.580;2023-01-29T09:03:40;0.00;99.90
21759;DHT22;11041;50.854;20.580;2023-01-29T09:06:10;-0.20;99.90
21759;DHT22;11041;50.854;20.580;2023-01-29T09:08:38;-0.20;99.90
21759;DHT22;11041;50.854;20.580;2023-01-29T09:11:05;0.00;99.90
21759;DHT22;11041;50.854;20.580;2023-01-29T09:13:33;0.00;99.90
21759;DHT22;11041;50.854;20.580;2023-01-29T09:16:03;0.10;99.90
21759;DHT22;11041;50.854;20.580;2023-01-29T09:18:30;0.10;99.90
21759;DHT22;11041;50.854;20.580;2023-01-29T09:20:57;0.10;99.90
21759;DHT22;11041;50.854;20.580;2023-01-29T09:23:23;0.00;99.90
21759;DHT22;11041;50.854;20.580;2023-01-29T09:25:50;0.10;99.90
21759;DHT22;11041;50.854;20.580;2023-01-29T09:28:17;0.10;99.90
21759;DHT22;11041;50.854;20.580;2023-01-29T09:30:44;0.10;99.90
21759;DHT22;11041;50.854;20.580;2023-01-29T09:33:11;0.10;99.90
21759;DHT22;11041;50.854;20.580;2023-01-29T09:35:41;0.10;99.90
21759;DHT22;11041;50.854;20.580;2023-01-29T09:38:09;0.20;99.90
21759;DHT22;11041;50.854;20.580;2023-01-29T09:43:44;0.30;99.90
21759;DHT22;11041;50.854;20.580;2023-01-29T09:46:42;0.40;99.90
21759;DHT22;11041;50.854;20.580;2023-01-29T09:52:16;0.40;99.90
21759;DHT22;11041;50.854;20.580;2023-01-29T09:58:04;0.40;99.90
21759;DHT22;11041;50.854;20.580;2023-01-29T10:12:41;0.40;99.90
21759;DHT22;11041;50.854;20.580;2023-01-29T10:15:35;0.40;99.90
21759;DHT22;11041;50.854;20.580;2023-01-29T10:26:56;0.60;99.90
21759;DHT22;11041;50.854;20.580;2023-01-29T10:29:26;0.60;99.90
21759;DHT22;11041;50.854;20.580;2023-01-29T10:31:57;0.60;99.90
21759;DHT22;11041;50.854;20.580;2023-01-29T10:34:35;0.60;99.90
21759;DHT22;11041;50.854;20.580;2023-01-29T10:37:17;0.50;99.90
21759;DHT22;11041;50.854;20.580;2023-01-29T10:39:50;0.50;99.90
21759;DHT22;11041;50.854;20.580;2023-01-29T10:42:18;0.60;99.90
21759;DHT22;11041;50.854;20.580;2023-01-29T10:57:30;1.10;99.90
21759;DHT22;11041;50.854;20.580;2023-01-29T11:00:11;1.10;99.90
21759;DHT22;11041;50.854;20.580;2023-01-29T11:02:48;1.00;99.90
21759;DHT22;11041;50.854;20.580;2023-01-29T11:05:38;1.00;99.90
21759;DHT22;11041;50.854;20.580;2023-01-29T11:08:17;1.10;99.90
21759;DHT22;11041;50.854;20.580;2023-01-29T11:13:44;1.20;99.90
21759;DHT22;11041;50.854;20.580;2023-01-29T11:16:30;1.20;99.90
21759;DHT22;11041;50.854;20.580;2023-01-29T11:19:00;1.20;99.90
21759;DHT22;11041;50.854;20.580;2023-01-29T11:21:28;1.10;99.90
21759;DHT22;11041;50.854;20.580;2023-01-29T11:24:25;1.10;99.90
21759;DHT22;11041;50.854;20.580;2023-01-29T11:26:54;1.10;99.90
21759;DHT22;11041;50.854;20.580;2023-01-29T11:29:42;1.00;99.90
21759;DHT22;11041;50.854;20.580;2023-01-29T11:32:32;0.90;99.90
21759;DHT22;11041;50.854;20.580;2023-01-29T11:37:45;0.80;99.90
21759;DHT22;11041;50.854;20.580;2023-01-29T11:42:47;1.00;99.90
21759;DHT22;11041;50.854;20.580;2023-01-29T11:45:27;1.00;99.90
21759;DHT22;11041;50.854;20.580;2023-01-29T11:47:58;1.00;99.90
21759;DHT22;11041;50.854;20.580;2023-01-29T11:50:28;1.10;99.90
21759;DHT22;11041;50.854;20.580;2023-01-29T11:53:00;1.10;99.90
21759;DHT22;11041;50.854;20.580;2023-01-29T11:55:33;1.10;99.90
21759;DHT22;11041;50.854;20.580;2023-01-29T11:58:28;1.10;99.90
21759;DHT22;11041;50.854;20.580;2023-01-29T12:00:58;1.00;99.90
21759;DHT22;11041;50.854;20.580;2023-01-29T12:03:50;1.10;99.90
21759;DHT22;11041;50.854;20.580;2023-01-29T12:06:27;1.20;99.90
21759;DHT22;11041;50.854;20.580;2023-01-29T12:09:02;1.20;99.90
21759;DHT22;11041;50.854;20.580;2023-01-29T12:11:34;1.00;99.90
21759;DHT22;11041;50.854;20.580;2023-01-29T12:14:22;1.20;99.90
21759;DHT22;11041;50.854;20.580;2023-01-29T12:16:57;1.10;99.90
21759;DHT22;11041;50.854;20.580;2023-01-29T12:19:40;1.00;99.90
21759;DHT22;11041;50.854;20.580;2023-01-29T12:22:46;0.90;99.90
21759;DHT22;11041;50.854;20.580;2023-01-29T12:28:44;1.10;99.90
21759;DHT22;11041;50.854;20.580;2023-01-29T12:34:47;1.00;99.90
21759;DHT22;11041;50.854;20.580;2023-01-29T12:37:29;1.00;99.90
21759;DHT22;11041;50.854;20.580;2023-01-29T12:39:57;0.80;99.90
21759;DHT22;11041;50.854;20.580;2023-01-29T12:42:26;0.80;99.90
21759;DHT22;11041;50.854;20.580;2023-01-29T12:45:06;0.90;99.90
21759;DHT22;11041;50.854;20.580;2023-01-29T12:47:48;0.90;99.90
21759;DHT22;11041;50.854;20.580;2023-01-29T12:50:37;1.00;99.90
21759;DHT22;11041;50.854;20.580;2023-01-29T12:56:06;0.80;99.90
21759;DHT22;11041;50.854;20.580;2023-01-29T12:58:55;0.90;99.90
21759;DHT22;11041;50.854;20.580;2023-01-29T13:01:49;1.00;99.90
21759;DHT22;11041;50.854;20.580;2023-01-29T13:07:22;1.00;99.90
21759;DHT22;11041;50.854;20.580;2023-01-29T13:09:59;1.20;99.90
21759;DHT22;11041;50.854;20.580;2023-01-29T13:12:33;1.00;99.90
21759;DHT22;11041;50.854;20.580;2023-01-29T13:15:15;0.90;99.90
21759;DHT22;11041;50.854;20.580;2023-01-29T13:17:55;1.10;99.90
21759;DHT22;11041;50.854;20.580;2023-01-29T13:20:29;1.00;99.90
21759;DHT22;11041;50.854;20.580;2023-01-29T13:23:14;1.10;99.90
21759;DHT22;11041;50.854;20.580;2023-01-29T13:25:56;1.20;99.90
21759;DHT22;11041;50.854;20.580;2023-01-29T13:28:25;1.30;99.90
21759;DHT22;11041;50.854;20.580;2023-01-29T13:34:13;1.10;99.90
21759;DHT22;11041;50.854;20.580;2023-01-29T13:36:45;1.10;99.90
21759;DHT22;11041;50.854;20.580;2023-01-29T13:39:30;1.20;99.90
21759;DHT22;11041;50.854;20.580;2023-01-29T13:42:01;1.30;99.90
21759;DHT22;11041;50.854;20.580;2023-01-29T13:44:47;1.30;99.90
21759;DHT22;11041;50.854;20.580;2023-01-29T13:47:25;1.30;99.90
21759;DHT22;11041;50.854;20.580;2023-01-29T13:50:01;1.20;99.90
21759;DHT22;11041;50.854;20.580;2023-01-29T13:52:36;1.30;99.90
21759;DHT22;11041;50.854;20.580;2023-01-29T14:02:48;1.00;99.90
21759;DHT22;11041;50.854;20.580;2023-01-29T14:05:42;1.00;99.90
21759;DHT22;11041;50.854;20.580;2023-01-29T14:08:38;1.10;99.90
21759;DHT22;11041;50.854;20.580;2023-01-29T14:11:27;1.00;99.90
21759;DHT22;11041;50.854;20.580;2023-01-29T14:13:59;1.00;99.90
21759;DHT22;11041;50.854;20.580;2023-01-29T14:16:32;1.00;99.90
21759;DHT22;11041;50.854;20.580;2023-01-29T14:19:02;1.00;99.90
21759;DHT22;11041;50.854;20.580;2023-01-29T14:21:35;0.90;99.90
21759;DHT22;11041;50.854;20.580;2023-01-29T14:24:18;1.00;99.90
21759;DHT22;11041;50.854;20.580;2023-01-29T14:26:53;1.00;99.90
21759;DHT22;11041;50.854;20.580;2023-01-29T14:31:58;0.80;99.90
21759;DHT22;11041;50.854;20.580;2023-01-29T14:39:51;1.00;99.90
21759;DHT22;11041;50.854;20.580;2023-01-29T14:47:51;0.90;99.90
21759;DHT22;11041;50.854;20.580;2023-01-29T14:56:32;0.90;99.90
21759;DHT22;11041;50.854;20.580;2023-01-29T14:59:16;0.90;99.90
21759;DHT22;11041;50.854;20.580;2023-01-29T15:01:54;0.90;99.90
21759;DHT22;11041;50.854;20.580;2023-01-29T15:04:39;0.90;99.90
21759;DHT22;11041;50.854;20.580;2023-01-29T15:07:19;0.90;99.90
21759;DHT22;11041;50.854;20.580;2023-01-29T15:10:17;0.90;99.90
21759;DHT22;11041;50.854;20.580;2023-01-29T15:13:12;0.90;99.90
21759;DHT22;11041;50.854;20.580;2023-01-29T15:15:53;0.80;99.90
21759;DHT22;11041;50.854;20.580;2023-01-29T15:18:37;0.80;99.90
21759;DHT22;11041;50.854;20.580;2023-01-29T15:21:14;0.90;99.90
21759;DHT22;11041;50.854;20.580;2023-01-29T15:23:44;0.90;99.90
21759;DHT22;11041;50.854;20.580;2023-01-29T15:26:25;0.90;99.90
21759;DHT22;11041;50.854;20.580;2023-01-29T15:28:56;0.90;99.90
21759;DHT22;11041;50.854;20.580;2023-01-29T15:31:26;0.90;99.90
21759;DHT22;11041;50.854;20.580;2023-01-29T15:33:55;0.90;99.90
21759;DHT22;11041;50.854;20.580;2023-01-29T15:36:27;0.80;99.90
21759;DHT22;11041;50.854;20.580;2023-01-29T15:39:15;0.90;99.90
21759;DHT22;11041;50.854;20.580;2023-01-29T15:41:44;0.90;99.90
21759;DHT22;11041;50.854;20.580;2023-01-29T15:44:13;0.90;99.90
21759;DHT22;11041;50.854;20.580;2023-01-29T15:46:53;0.80;99.90
21759;DHT22;11041;50.854;20.580;2023-01-29T15:49:34;0.90;99.90
21759;DHT22;11041;50.854;20.580;2023-01-29T15:52:19;0.90;99.90
21759;DHT22;11041;50.854;20.580;2023-01-29T15:54:52;0.90;99.90
21759;DHT22;11041;50.854;20.580;2023-01-29T15:57:26;0.90;99.90
21759;DHT22;11041;50.854;20.580;2023-01-29T16:00:00;0.90;99.90
21759;DHT22;11041;50.854;20.580;2023-01-29T16:02:41;0.90;99.90
21759;DHT22;11041;50.854;20.580;2023-01-29T16:05:21;0.90;99.90
21759;DHT22;11041;50.854;20.580;2023-01-29T16:07:53;0.90;99.90
21759;DHT22;11041;50.854;20.580;2023-01-29T16:10:25;0.90;99.90
21759;DHT22;11041;50.854;20.580;2023-01-29T16:12:55;0.90;99.90
21759;DHT22;11041;50.854;20.580;2023-01-29T16:18:15;0.90;99.90
21759;DHT22;11041;50.854;20.580;2023-01-29T16:20:50;0.90;99.90
21759;DHT22;11041;50.854;20.580;2023-01-29T16:23:25;0.90;99.90
21759;DHT22;11041;50.854;20.580;2023-01-29T16:26:04;0.90;99.90
21759;DHT22;11041;50.854;20.580;2023-01-29T16:28:39;0.80;99.90
21759;DHT22;11041;50.854;20.580;2023-01-29T16:31:09;0.80;99.90
21759;DHT22;11041;50.854;20.580;2023-01-29T16:33:42;0.80;99.90
21759;DHT22;11041;50.854;20.580;2023-01-29T16:36:17;0.80;99.90
21759;DHT22;11041;50.854;20.580;2023-01-29T16:38:55;0.80;99.90
21759;DHT22;11041;50.854;20.580;2023-01-29T16:41:31;0.80;99.90
21759;DHT22;11041;50.854;20.580;2023-01-29T16:44:03;0.80;99.90
21759;DHT22;11041;50.854;20.580;2023-01-29T16:47:12;0.80;99.90
21759;DHT22;11041;50.854;20.580;2023-01-29T16:49:47;0.80;99.90
21759;DHT22;11041;50.854;20.580;2023-01-29T16:52:30;0.70;99.90
21759;DHT22;11041;50.854;20.580;2023-01-29T16:55:03;0.70;99.90
21759;DHT22;11041;50.854;20.580;2023-01-29T16:57:49;0.70;99.90
21759;DHT22;11041;50.854;20.580;2023-01-29T17:00:28;0.70;99.90
21759;DHT22;11041;50.854;20.580;2023-01-29T17:03:05;0.60;99.90
21759;DHT22;11041;50.854;20.580;2023-01-29T17:05:35;0.60;99.90
21759;DHT22;11041;50.854;20.580;2023-01-29T17:08:03;0.50;99.90
21759;DHT22;11041;50.854;20.580;2023-01-29T17:10:32;0.60;99.90
21759;DHT22;11041;50.854;20.580;2023-01-29T17:13:07;0.50;99.90
21759;DHT22;11041;50.854;20.580;2023-01-29T17:18:23;0.50;99.90
21759;DHT22;11041;50.854;20.580;2023-01-29T17:20:51;0.50;99.90
21759;DHT22;11041;50.854;20.580;2023-01-29T17:23:21;0.50;99.90
21759;DHT22;11041;50.854;20.580;2023-01-29T17:25:48;0.50;99.90
21759;DHT22;11041;50.854;20.580;2023-01-29T17:28:16;0.50;99.90
21759;DHT22;11041;50.854;20.580;2023-01-29T17:30:44;0.40;99.90
21759;DHT22;11041;50.854;20.580;2023-01-29T17:36:13;0.30;99.90
21759;DHT22;11041;50.854;20.580;2023-01-29T17:38:42;0.30;99.90
21759;DHT22;11041;50.854;20.580;2023-01-29T17:41:28;0.40;99.90
21759;DHT22;11041;50.854;20.580;2023-01-29T17:43:56;0.40;99.90
21759;DHT22;11041;50.854;20.580;2023-01-29T17:46:23;0.30;99.90
21759;DHT22;11041;50.854;20.580;2023-01-29T17:48:49;0.30;99.90
21759;DHT22;11041;50.854;20.580;2023-01-29T17:51:17;0.30;99.90
21759;DHT22;11041;50.854;20.580;2023-01-29T17:53:50;0.00;99.90
21759;DHT22;11041;50.854;20.580;2023-01-29T17:56:24;0.10;99.90
21759;DHT22;11041;50.854;20.580;2023-01-29T17:58:57;0.30;99.90
21759;DHT22;11041;50.854;20.580;2023-01-29T18:01:24;0.30;99.90
21759;DHT22;11041;50.854;20.580;2023-01-29T18:03:51;0.30;99.90
21759;DHT22;11041;50.854;20.580;2023-01-29T18:06:26;0.30;99.90
21759;DHT22;11041;50.854;20.580;2023-01-29T18:08:54;0.30;99.90
21759;DHT22;11041;50.854;20.580;2023-01-29T18:11:21;0.30;99.90
21759;DHT22;11041;50.854;20.580;2023-01-29T18:13:48;0.30;99.90
21759;DHT22;11041;50.854;20.580;2023-01-29T18:16:14;0.30;99.90
21759;DHT22;11041;50.854;20.580;2023-01-29T18:18:43;0.30;99.90
21759;DHT22;11041;50.854;20.580;2023-01-29T18:21:09;0.30;99.90
21759;DHT22;11041;50.854;20.580;2023-01-29T18:23:35;0.30;99.90
21759;DHT22;11041;50.854;20.580;2023-01-29T18:26:02;0.40;99.90
21759;DHT22;11041;50.854;20.580;2023-01-29T18:28:28;0.40;99.90
21759;DHT22;11041;50.854;20.580;2023-01-29T18:30:56;0.40;99.90
21759;DHT22;11041;50.854;20.580;2023-01-29T18:33:27;0.50;99.90
21759;DHT22;11041;50.854;20.580;2023-01-29T18:35:54;0.40;99.90
21759;DHT22;11041;50.854;20.580;2023-01-29T18:38:22;0.40;99.90
21759;DHT22;11041;50.854;20.580;2023-01-29T18:40:49;0.50;99.90
21759;DHT22;11041;50.854;20.580;2023-01-29T18:43:16;0.50;99.90
21759;DHT22;11041;50.854;20.580;2023-01-29T18:45:43;0.40;99.90
21759;DHT22;11041;50.854;20.580;2023-01-29T18:48:10;0.40;99.90
21759;DHT22;11041;50.854;20.580;2023-01-29T18:50:37;0.40;99.90
21759;DHT22;11041;50.854;20.580;2023-01-29T18:53:04;0.50;99.90
21759;DHT22;11041;50.854;20.580;2023-01-29T18:55:31;0.40;99.90
21759;DHT22;11041;50.854;20.580;2023-01-29T18:57:57;0.40;99.90
21759;DHT22;11041;50.854;20.580;2023-01-29T19:00:24;0.40;99.90
21759;DHT22;11041;50.854;20.580;2023-01-29T19:02:50;0.40;99.90
21759;DHT22;11041;50.854;20.580;2023-01-29T19:05:17;0.40;99.90
21759;DHT22;11041;50.854;20.580;2023-01-29T19:07:47;0.40;99.90
21759;DHT22;11041;50.854;20.580;2023-01-29T19:10:14;0.30;99.90
21759;DHT22;11041;50.854;20.580;2023-01-29T19:12:42;0.40;99.90
21759;DHT22;11041;50.854;20.580;2023-01-29T19:15:09;0.40;99.90
21759;DHT22;11041;50.854;20.580;2023-01-29T19:17:37;0.40;99.90
21759;DHT22;11041;50.854;20.580;2023-01-29T19:20:04;0.40;99.90
21759;DHT22;11041;50.854;20.580;2023-01-29T19:22:31;0.30;99.90
21759;DHT22;11041;50.854;20.580;2023-01-29T19:24:58;0.30;99.90
21759;DHT22;11041;50.854;20.580;2023-01-29T19:27:24;0.30;99.90
21759;DHT22;11041;50.854;20.580;2023-01-29T19:29:56;0.20;99.90
21759;DHT22;11041;50.854;20.580;2023-01-29T19:32:24;0.20;99.90
21759;DHT22;11041;50.854;20.580;2023-01-29T19:34:54;0.20;99.90
21759;DHT22;11041;50.854;20.580;2023-01-29T19:37:20;0.30;99.90